sensor_id;sensor_type;location;lat;lon;timestamp;temperature;humidity
67799;SHT30;54596;43.216;27.904;2023-12-07T00:01:34;9.82;95.21
67799;SHT30;54596;43.216;27.904;2023-12-07T00:04:00;9.82;95.17
67799;SHT30;54596;43.216;27.904;2023-12-07T00:06:26;9.83;95.18
67799;SHT30;54596;43.216;27.904;2023-12-07T00:08:52;9.78;95.20
67799;SHT30;54596;43.216;27.904;2023-12-07T00:11:18;9.76;95.37
67799;SHT30;54596;43.216;27.904;2023-12-07T00:13:43;9.73;95.43
67799;SHT30;54596;43.216;27.904;2023-12-07T00:16:09;9.70;95.42
67799;SHT30;54596;43.216;27.904;2023-12-07T00:18:35;9.73;95.42
67799;SHT30;54596;43.216;27.904;2023-12-07T00:21:01;9.73;95.40
67799;SHT30;54596;43.216;27.904;2023-12-07T00:23:26;9.70;95.43
67799;SHT30;54596;43.216;27.904;2023-12-07T00:25:52;9.70;95.37
67799;SHT30;54596;43.216;27.904;2023-12-07T00:28:17;9.69;95.41
67799;SHT30;54596;43.216;27.904;2023-12-07T00:30:43;9.69;95.32
67799;SHT30;54596;43.216;27.904;2023-12-07T00:33:08;9.68;95.37
67799;SHT30;54596;43.216;27.904;2023-12-07T00:35:34;9.68;95.38
67799;SHT30;54596;43.216;27.904;2023-12-07T00:38:01;9.65;95.45
67799;SHT30;54596;43.216;27.904;2023-12-07T00:40:27;9.69;95.37
67799;SHT30;54596;43.216;27.904;2023-12-07T00:42:52;9.65;95.54
67799;SHT30;54596;43.216;27.904;2023-12-07T00:45:18;9.66;95.36
67799;SHT30;54596;43.216;27.904;2023-12-07T00:47:43;9.68;95.22
67799;SHT30;54596;43.216;27.904;2023-12-07T00:50:12;9.68;95.14
67799;SHT30;54596;43.216;27.904;2023-12-07T00:52:39;9.70;95.08
67799;SHT30;54596;43.216;27.904;2023-12-07T00:55:05;9.70;95.01
67799;SHT30;54596;43.216;27.904;2023-12-07T00:57:31;9.68;95.04
67799;SHT30;54596;43.216;27.904;2023-12-07T00:59:56;9.70;94.91
67799;SHT30;54596;43.216;27.904;2023-12-07T01:02:22;9.73;94.82
67799;SHT30;54596;43.216;27.904;2023-12-07T01:04:48;9.72;94.92
67799;SHT30;54596;43.216;27.904;2023-12-07T01:07:14;9.69;94.95
67799;SHT30;54596;43.216;27.904;2023-12-07T01:09:40;9.70;94.86
67799;SHT30;54596;43.216;27.904;2023-12-07T01:12:05;9.70;94.91
67799;SHT30;54596;43.216;27.904;2023-12-07T01:14:31;9.70;95.00
67799;SHT30;54596;43.216;27.904;2023-12-07T01:16:57;9.70;95.06
67799;SHT30;54596;43.216;27.904;2023-12-07T01:19:23;9.70;94.92
67799;SHT30;54596;43.216;27.904;2023-12-07T01:21:50;9.70;95.14
67799;SHT30;54596;43.216;27.904;2023-12-07T01:24:15;9.72;94.88
67799;SHT30;54596;43.216;27.904;2023-12-07T01:26:41;9.73;95.03
67799;SHT30;54596;43.216;27.904;2023-12-07T01:29:07;9.72;94.97
67799;SHT30;54596;43.216;27.904;2023-12-07T01:31:33;9.76;95.00
67799;SHT30;54596;43.216;27.904;2023-12-07T01:33:58;9.75;94.88
67799;SHT30;54596;43.216;27.904;2023-12-07T01:36:24;9.72;94.91
67799;SHT30;54596;43.216;27.904;2023-12-07T01:38:50;9.72;95.04
67799;SHT30;54596;43.216;27.904;2023-12-07T01:41:15;9.70;95.00
67799;SHT30;54596;43.216;27.904;2023-12-07T01:43:47;9.70;94.84
67799;SHT30;54596;43.216;27.904;2023-12-07T01:46:13;9.70;94.85
67799;SHT30;54596;43.216;27.904;2023-12-07T01:48:40;9.70;94.96
67799;SHT30;54596;43.216;27.904;2023-12-07T01:51:06;9.70;94.95
67799;SHT30;54596;43.216;27.904;2023-12-07T01:53:32;9.70;94.90
67799;SHT30;54596;43.216;27.904;2023-12-07T01:55:59;9.68;94.95
67799;SHT30;54596;43.216;27.904;2023-12-07T01:58:25;9.66;94.85
67799;SHT30;54596;43.216;27.904;2023-12-07T02:00:50;9.68;94.77
67799;SHT30;54596;43.216;27.904;2023-12-07T02:03:17;9.66;94.82
67799;SHT30;54596;43.216;27.904;2023-12-07T02:05:43;9.68;94.85
67799;SHT30;54596;43.216;27.904;2023-12-07T02:08:11;9.68;94.83
67799;SHT30;54596;43.216;27.904;2023-12-07T02:10:37;9.66;94.92
67799;SHT30;54596;43.216;27.904;2023-12-07T02:13:03;9.66;94.87
67799;SHT30;54596;43.216;27.904;2023-12-07T02:15:29;9.66;94.76
67799;SHT30;54596;43.216;27.904;2023-12-07T02:18:06;9.66;94.83
67799;SHT30;54596;43.216;27.904;2023-12-07T02:23:24;9.66;94.63
67799;SHT30;54596;43.216;27.904;2023-12-07T02:29:12;9.65;94.50
67799;SHT30;54596;43.216;27.904;2023-12-07T02:31:38;9.61;94.39
67799;SHT30;54596;43.216;27.904;2023-12-07T02:34:03;9.65;94.43
67799;SHT30;54596;43.216;27.904;2023-12-07T02:36:30;9.58;94.40
67799;SHT30;54596;43.216;27.904;2023-12-07T02:38:58;9.59;94.45
67799;SHT30;54596;43.216;27.904;2023-12-07T02:41:30;9.56;94.45
67799;SHT30;54596;43.216;27.904;2023-12-07T02:43:57;9.58;94.53
67799;SHT30;54596;43.216;27.904;2023-12-07T02:46:26;9.55;94.51
67799;SHT30;54596;43.216;27.904;2023-12-07T02:48:51;9.52;94.40
67799;SHT30;54596;43.216;27.904;2023-12-07T02:51:17;9.53;94.38
67799;SHT30;54596;43.216;27.904;2023-12-07T02:53:43;9.51;94.54
67799;SHT30;54596;43.216;27.904;2023-12-07T02:56:08;9.52;94.62
67799;SHT30;54596;43.216;27.904;2023-12-07T02:58:34;9.49;94.66
67799;SHT30;54596;43.216;27.904;2023-12-07T03:00:59;9.46;94.54
67799;SHT30;54596;43.216;27.904;2023-12-07T03:03:25;9.44;94.54
67799;SHT30;54596;43.216;27.904;2023-12-07T03:05:51;9.42;94.62
67799;SHT30;54596;43.216;27.904;2023-12-07T03:08:16;9.42;94.45
67799;SHT30;54596;43.216;27.904;2023-12-07T03:10:42;9.38;94.56
67799;SHT30;54596;43.216;27.904;2023-12-07T03:13:07;9.39;94.54
67799;SHT30;54596;43.216;27.904;2023-12-07T03:15:33;9.42;94.54
67799;SHT30;54596;43.216;27.904;2023-12-07T03:17:59;9.41;94.48
67799;SHT30;54596;43.216;27.904;2023-12-07T03:20:25;9.42;94.47
67799;SHT30;54596;43.216;27.904;2023-12-07T03:22:50;9.42;94.34
67799;SHT30;54596;43.216;27.904;2023-12-07T03:25:16;9.38;94.28
67799;SHT30;54596;43.216;27.904;2023-12-07T03:27:41;9.38;94.27
67799;SHT30;54596;43.216;27.904;2023-12-07T03:30:07;9.36;94.27
67799;SHT30;54596;43.216;27.904;2023-12-07T03:32:33;9.36;94.33
67799;SHT30;54596;43.216;27.904;2023-12-07T03:34:58;9.36;94.26
67799;SHT30;54596;43.216;27.904;2023-12-07T03:37:24;9.36;94.24
67799;SHT30;54596;43.216;27.904;2023-12-07T03:39:49;9.35;94.24
67799;SHT30;54596;43.216;27.904;2023-12-07T03:42:15;9.34;94.13
67799;SHT30;54596;43.216;27.904;2023-12-07T03:44:40;9.34;94.36
67799;SHT30;54596;43.216;27.904;2023-12-07T03:47:07;9.32;94.29
67799;SHT30;54596;43.216;27.904;2023-12-07T03:49:33;9.34;94.22
67799;SHT30;54596;43.216;27.904;2023-12-07T03:51:58;9.32;94.22
67799;SHT30;54596;43.216;27.904;2023-12-07T03:54:24;9.31;94.20
67799;SHT30;54596;43.216;27.904;2023-12-07T03:56:49;9.34;94.42
67799;SHT30;54596;43.216;27.904;2023-12-07T03:59:15;9.36;94.38
67799;SHT30;54596;43.216;27.904;2023-12-07T04:01:41;9.42;94.37
67799;SHT30;54596;43.216;27.904;2023-12-07T04:04:07;9.42;94.23
67799;SHT30;54596;43.216;27.904;2023-12-07T04:06:32;9.45;94.11
67799;SHT30;54596;43.216;27.904;2023-12-07T04:08:58;9.45;94.13
67799;SHT30;54596;43.216;27.904;2023-12-07T04:11:23;9.45;94.01
67799;SHT30;54596;43.216;27.904;2023-12-07T04:13:49;9.45;94.03
67799;SHT30;54596;43.216;27.904;2023-12-07T04:16:15;9.45;93.96
67799;SHT30;54596;43.216;27.904;2023-12-07T04:18:41;9.46;93.85
67799;SHT30;54596;43.216;27.904;2023-12-07T04:21:07;9.48;93.80
67799;SHT30;54596;43.216;27.904;2023-12-07T04:23:33;9.46;93.55
67799;SHT30;54596;43.216;27.904;2023-12-07T04:25:58;9.35;93.05
67799;SHT30;54596;43.216;27.904;2023-12-07T04:28:24;9.30;93.01
67799;SHT30;54596;43.216;27.904;2023-12-07T04:30:49;9.25;93.13
67799;SHT30;54596;43.216;27.904;2023-12-07T04:33:15;9.20;92.69
67799;SHT30;54596;43.216;27.904;2023-12-07T04:35:41;9.10;92.49
67799;SHT30;54596;43.216;27.904;2023-12-07T04:38:07;9.06;92.65
67799;SHT30;54596;43.216;27.904;2023-12-07T04:40:35;9.04;92.77
67799;SHT30;54596;43.216;27.904;2023-12-07T04:43:02;8.92;92.43
67799;SHT30;54596;43.216;27.904;2023-12-07T04:45:28;8.87;92.66
67799;SHT30;54596;43.216;27.904;2023-12-07T04:47:53;8.83;92.91
67799;SHT30;54596;43.216;27.904;2023-12-07T04:50:19;8.73;92.60
67799;SHT30;54596;43.216;27.904;2023-12-07T04:52:45;8.65;92.68
67799;SHT30;54596;43.216;27.904;2023-12-07T04:55:10;8.59;93.09
67799;SHT30;54596;43.216;27.904;2023-12-07T04:57:36;8.54;93.04
67799;SHT30;54596;43.216;27.904;2023-12-07T05:00:04;8.47;93.00
67799;SHT30;54596;43.216;27.904;2023-12-07T05:02:35;8.42;93.27
67799;SHT30;54596;43.216;27.904;2023-12-07T05:05:00;8.40;93.24
67799;SHT30;54596;43.216;27.904;2023-12-07T05:07:26;8.38;93.21
67799;SHT30;54596;43.216;27.904;2023-12-07T05:09:51;8.40;93.36
67799;SHT30;54596;43.216;27.904;2023-12-07T05:12:17;8.36;93.35
67799;SHT30;54596;43.216;27.904;2023-12-07T05:14:43;8.33;93.39
67799;SHT30;54596;43.216;27.904;2023-12-07T05:17:08;8.34;93.35
67799;SHT30;54596;43.216;27.904;2023-12-07T05:19:34;8.34;93.35
67799;SHT30;54596;43.216;27.904;2023-12-07T05:22:00;8.31;93.27
67799;SHT30;54596;43.216;27.904;2023-12-07T05:24:25;8.31;93.20
67799;SHT30;54596;43.216;27.904;2023-12-07T05:26:51;8.31;93.22
67799;SHT30;54596;43.216;27.904;2023-12-07T05:29:18;8.28;93.13
67799;SHT30;54596;43.216;27.904;2023-12-07T05:31:44;8.26;93.08
67799;SHT30;54596;43.216;27.904;2023-12-07T05:34:10;8.20;93.21
67799;SHT30;54596;43.216;27.904;2023-12-07T05:36:36;8.20;93.36
67799;SHT30;54596;43.216;27.904;2023-12-07T05:39:02;8.14;93.52
67799;SHT30;54596;43.216;27.904;2023-12-07T05:41:27;8.11;93.61
67799;SHT30;54596;43.216;27.904;2023-12-07T05:43:53;8.11;93.91
67799;SHT30;54596;43.216;27.904;2023-12-07T05:46:19;8.10;93.67
67799;SHT30;54596;43.216;27.904;2023-12-07T05:48:45;8.09;93.74
67799;SHT30;54596;43.216;27.904;2023-12-07T05:51:12;8.10;93.66
67799;SHT30;54596;43.216;27.904;2023-12-07T05:53:39;8.09;93.66
67799;SHT30;54596;43.216;27.904;2023-12-07T05:56:05;8.07;93.84
67799;SHT30;54596;43.216;27.904;2023-12-07T05:58:31;8.13;94.02
67799;SHT30;54596;43.216;27.904;2023-12-07T06:00:58;8.14;94.08
67799;SHT30;54596;43.216;27.904;2023-12-07T06:03:25;8.13;93.79
67799;SHT30;54596;43.216;27.904;2023-12-07T06:05:51;8.13;93.75
67799;SHT30;54596;43.216;27.904;2023-12-07T06:08:18;8.09;93.70
67799;SHT30;54596;43.216;27.904;2023-12-07T06:10:46;8.07;93.63
67799;SHT30;54596;43.216;27.904;2023-12-07T06:13:13;8.03;93.69
67799;SHT30;54596;43.216;27.904;2023-12-07T06:15:39;8.07;93.87
67799;SHT30;54596;43.216;27.904;2023-12-07T06:18:09;8.04;93.75
67799;SHT30;54596;43.216;27.904;2023-12-07T06:20:34;8.03;93.82
67799;SHT30;54596;43.216;27.904;2023-12-07T06:23:00;8.06;93.76
67799;SHT30;54596;43.216;27.904;2023-12-07T06:25:27;8.09;93.83
67799;SHT30;54596;43.216;27.904;2023-12-07T06:27:52;8.06;93.67
67799;SHT30;54596;43.216;27.904;2023-12-07T06:30:18;8.10;93.86
67799;SHT30;54596;43.216;27.904;2023-12-07T06:32:44;8.11;93.79
67799;SHT30;54596;43.216;27.904;2023-12-07T06:35:11;8.11;93.68
67799;SHT30;54596;43.216;27.904;2023-12-07T06:37:37;8.11;93.52
67799;SHT30;54596;43.216;27.904;2023-12-07T06:40:03;8.09;93.71
67799;SHT30;54596;43.216;27.904;2023-12-07T06:42:29;8.03;93.72
67799;SHT30;54596;43.216;27.904;2023-12-07T06:44:55;8.07;93.99
67799;SHT30;54596;43.216;27.904;2023-12-07T06:47:21;8.10;94.03
67799;SHT30;54596;43.216;27.904;2023-12-07T06:49:46;8.16;93.94
67799;SHT30;54596;43.216;27.904;2023-12-07T06:52:12;8.13;94.02
67799;SHT30;54596;43.216;27.904;2023-12-07T06:54:38;8.14;93.90
67799;SHT30;54596;43.216;27.904;2023-12-07T06:57:04;8.09;93.72
67799;SHT30;54596;43.216;27.904;2023-12-07T06:59:32;8.13;94.00
67799;SHT30;54596;43.216;27.904;2023-12-07T07:01:58;8.10;93.92
67799;SHT30;54596;43.216;27.904;2023-12-07T07:04:23;8.11;93.95
67799;SHT30;54596;43.216;27.904;2023-12-07T07:06:49;8.13;94.02
67799;SHT30;54596;43.216;27.904;2023-12-07T07:09:15;8.11;93.96
67799;SHT30;54596;43.216;27.904;2023-12-07T07:11:41;8.09;94.27
67799;SHT30;54596;43.216;27.904;2023-12-07T07:14:07;8.11;94.43
67799;SHT30;54596;43.216;27.904;2023-12-07T07:16:33;8.10;94.15
67799;SHT30;54596;43.216;27.904;2023-12-07T07:18:58;8.14;94.29
67799;SHT30;54596;43.216;27.904;2023-12-07T07:21:24;8.09;94.20
67799;SHT30;54596;43.216;27.904;2023-12-07T07:23:50;8.10;94.24
67799;SHT30;54596;43.216;27.904;2023-12-07T07:26:15;8.13;94.54
67799;SHT30;54596;43.216;27.904;2023-12-07T07:28:43;8.17;94.45
67799;SHT30;54596;43.216;27.904;2023-12-07T07:31:08;8.21;94.33
67799;SHT30;54596;43.216;27.904;2023-12-07T07:33:34;8.26;94.47
67799;SHT30;54596;43.216;27.904;2023-12-07T07:36:00;8.27;94.08
67799;SHT30;54596;43.216;27.904;2023-12-07T07:38:25;8.26;94.02
67799;SHT30;54596;43.216;27.904;2023-12-07T07:40:51;8.26;93.84
67799;SHT30;54596;43.216;27.904;2023-12-07T07:43:16;8.24;93.82
67799;SHT30;54596;43.216;27.904;2023-12-07T07:45:43;8.24;93.73
67799;SHT30;54596;43.216;27.904;2023-12-07T07:48:09;8.23;93.83
67799;SHT30;54596;43.216;27.904;2023-12-07T07:50:34;8.27;93.85
67799;SHT30;54596;43.216;27.904;2023-12-07T07:53:02;8.23;93.59
67799;SHT30;54596;43.216;27.904;2023-12-07T07:55:29;8.17;93.55
67799;SHT30;54596;43.216;27.904;2023-12-07T07:57:54;8.21;93.64
67799;SHT30;54596;43.216;27.904;2023-12-07T08:00:20;8.19;93.64
67799;SHT30;54596;43.216;27.904;2023-12-07T08:02:46;8.17;93.55
67799;SHT30;54596;43.216;27.904;2023-12-07T08:05:12;8.19;93.59
67799;SHT30;54596;43.216;27.904;2023-12-07T08:07:39;8.19;93.38
67799;SHT30;54596;43.216;27.904;2023-12-07T08:10:06;8.19;93.42
67799;SHT30;54596;43.216;27.904;2023-12-07T08:12:33;8.19;93.71
67799;SHT30;54596;43.216;27.904;2023-12-07T08:14:59;8.17;93.82
67799;SHT30;54596;43.216;27.904;2023-12-07T08:17:24;8.20;93.74
67799;SHT30;54596;43.216;27.904;2023-12-07T08:19:52;8.21;93.57
67799;SHT30;54596;43.216;27.904;2023-12-07T08:22:17;8.27;93.60
67799;SHT30;54596;43.216;27.904;2023-12-07T08:24:43;8.23;93.49
67799;SHT30;54596;43.216;27.904;2023-12-07T08:27:09;8.28;93.47
67799;SHT30;54596;43.216;27.904;2023-12-07T08:29:35;8.33;93.48
67799;SHT30;54596;43.216;27.904;2023-12-07T08:32:00;8.34;93.50
67799;SHT30;54596;43.216;27.904;2023-12-07T08:34:26;8.36;93.39
67799;SHT30;54596;43.216;27.904;2023-12-07T08:36:51;8.37;93.33
67799;SHT30;54596;43.216;27.904;2023-12-07T08:39:18;8.37;93.04
67799;SHT30;54596;43.216;27.904;2023-12-07T08:41:43;8.42;93.60
67799;SHT30;54596;43.216;27.904;2023-12-07T08:44:09;8.42;93.03
67799;SHT30;54596;43.216;27.904;2023-12-07T08:46:34;8.44;92.88
67799;SHT30;54596;43.216;27.904;2023-12-07T08:49:01;8.45;92.95
67799;SHT30;54596;43.216;27.904;2023-12-07T08:51:28;8.49;93.21
67799;SHT30;54596;43.216;27.904;2023-12-07T08:53:53;8.52;93.04
67799;SHT30;54596;43.216;27.904;2023-12-07T08:56:20;8.56;92.79
67799;SHT30;54596;43.216;27.904;2023-12-07T08:58:45;8.55;92.59
67799;SHT30;54596;43.216;27.904;2023-12-07T09:01:11;8.59;92.79
67799;SHT30;54596;43.216;27.904;2023-12-07T09:03:37;8.62;92.51
67799;SHT30;54596;43.216;27.904;2023-12-07T09:06:03;8.64;92.41
67799;SHT30;54596;43.216;27.904;2023-12-07T09:08:28;8.65;92.09
67799;SHT30;54596;43.216;27.904;2023-12-07T09:10:54;8.59;91.65
67799;SHT30;54596;43.216;27.904;2023-12-07T09:13:19;8.64;91.91
67799;SHT30;54596;43.216;27.904;2023-12-07T09:15:45;8.64;91.58
67799;SHT30;54596;43.216;27.904;2023-12-07T09:18:11;8.65;91.73
67799;SHT30;54596;43.216;27.904;2023-12-07T09:20:37;8.62;91.48
67799;SHT30;54596;43.216;27.904;2023-12-07T09:23:13;8.59;91.58
67799;SHT30;54596;43.216;27.904;2023-12-07T09:25:40;8.59;91.47
67799;SHT30;54596;43.216;27.904;2023-12-07T09:28:06;8.58;91.84
67799;SHT30;54596;43.216;27.904;2023-12-07T09:30:32;8.55;91.48
67799;SHT30;54596;43.216;27.904;2023-12-07T09:32:59;8.52;91.47
67799;SHT30;54596;43.216;27.904;2023-12-07T09:35:25;8.56;91.57
67799;SHT30;54596;43.216;27.904;2023-12-07T09:37:50;8.54;91.52
67799;SHT30;54596;43.216;27.904;2023-12-07T09:40:18;8.55;91.32
67799;SHT30;54596;43.216;27.904;2023-12-07T09:42:46;8.58;91.54
67799;SHT30;54596;43.216;27.904;2023-12-07T09:45:12;8.51;90.78
67799;SHT30;54596;43.216;27.904;2023-12-07T09:47:40;8.56;91.09
67799;SHT30;54596;43.216;27.904;2023-12-07T09:50:07;8.55;90.98
67799;SHT30;54596;43.216;27.904;2023-12-07T09:52:37;8.51;90.65
67799;SHT30;54596;43.216;27.904;2023-12-07T09:55:06;8.51;90.49
67799;SHT30;54596;43.216;27.904;2023-12-07T09:57:32;8.47;90.51
67799;SHT30;54596;43.216;27.904;2023-12-07T09:59:59;8.47;90.49
67799;SHT30;54596;43.216;27.904;2023-12-07T10:02:25;8.48;90.78
67799;SHT30;54596;43.216;27.904;2023-12-07T10:05:07;8.49;90.65
67799;SHT30;54596;43.216;27.904;2023-12-07T10:07:38;8.58;90.86
67799;SHT30;54596;43.216;27.904;2023-12-07T10:10:05;8.56;90.27
67799;SHT30;54596;43.216;27.904;2023-12-07T10:12:31;8.42;89.84
67799;SHT30;54596;43.216;27.904;2023-12-07T10:15:21;8.34;89.80
67799;SHT30;54596;43.216;27.904;2023-12-07T10:17:47;8.30;90.51
67799;SHT30;54596;43.216;27.904;2023-12-07T10:20:18;8.30;90.40
67799;SHT30;54596;43.216;27.904;2023-12-07T10:22:45;8.27;90.02
67799;SHT30;54596;43.216;27.904;2023-12-07T10:25:11;8.34;90.12
67799;SHT30;54596;43.216;27.904;2023-12-07T10:27:39;8.33;90.29
67799;SHT30;54596;43.216;27.904;2023-12-07T10:30:09;8.45;90.88
67799;SHT30;54596;43.216;27.904;2023-12-07T10:32:37;8.33;90.17
67799;SHT30;54596;43.216;27.904;2023-12-07T10:35:06;8.21;89.77
67799;SHT30;54596;43.216;27.904;2023-12-07T10:37:32;8.21;90.11
67799;SHT30;54596;43.216;27.904;2023-12-07T10:39:58;8.14;90.18
67799;SHT30;54596;43.216;27.904;2023-12-07T10:42:25;8.13;90.36
67799;SHT30;54596;43.216;27.904;2023-12-07T10:44:57;8.13;90.32
67799;SHT30;54596;43.216;27.904;2023-12-07T10:47:23;8.03;90.47
67799;SHT30;54596;43.216;27.904;2023-12-07T10:49:52;7.93;90.48
67799;SHT30;54596;43.216;27.904;2023-12-07T10:52:23;7.89;90.71
67799;SHT30;54596;43.216;27.904;2023-12-07T10:55:07;7.86;90.68
67799;SHT30;54596;43.216;27.904;2023-12-07T10:57:37;7.83;90.82
67799;SHT30;54596;43.216;27.904;2023-12-07T11:00:03;7.79;90.98
67799;SHT30;54596;43.216;27.904;2023-12-07T11:02:29;7.82;90.91
67799;SHT30;54596;43.216;27.904;2023-12-07T11:04:59;7.76;90.75
67799;SHT30;54596;43.216;27.904;2023-12-07T11:07:27;7.71;90.69
67799;SHT30;54596;43.216;27.904;2023-12-07T11:10:09;7.57;90.49
67799;SHT30;54596;43.216;27.904;2023-12-07T11:12:45;7.57;90.62
67799;SHT30;54596;43.216;27.904;2023-12-07T11:15:14;7.48;90.65
67799;SHT30;54596;43.216;27.904;2023-12-07T11:17:50;7.46;90.76
67799;SHT30;54596;43.216;27.904;2023-12-07T11:20:32;7.46;90.93
67799;SHT30;54596;43.216;27.904;2023-12-07T11:22:59;7.38;90.53
67799;SHT30;54596;43.216;27.904;2023-12-07T11:25:25;7.33;90.68
67799;SHT30;54596;43.216;27.904;2023-12-07T11:28:02;7.34;91.05
67799;SHT30;54596;43.216;27.904;2023-12-07T11:30:31;7.27;91.10
67799;SHT30;54596;43.216;27.904;2023-12-07T11:32:57;7.23;91.13
67799;SHT30;54596;43.216;27.904;2023-12-07T11:35:23;7.20;91.39
67799;SHT30;54596;43.216;27.904;2023-12-07T11:38:06;7.14;91.37
67799;SHT30;54596;43.216;27.904;2023-12-07T11:40:35;7.17;91.46
67799;SHT30;54596;43.216;27.904;2023-12-07T11:43:01;7.17;91.20
67799;SHT30;54596;43.216;27.904;2023-12-07T11:45:47;7.20;91.07
67799;SHT30;54596;43.216;27.904;2023-12-07T11:48:16;7.16;90.80
67799;SHT30;54596;43.216;27.904;2023-12-07T11:51:05;7.06;91.00
67799;SHT30;54596;43.216;27.904;2023-12-07T11:53:32;7.00;91.09
67799;SHT30;54596;43.216;27.904;2023-12-07T11:55:59;7.00;91.23
67799;SHT30;54596;43.216;27.904;2023-12-07T11:58:29;7.06;91.31
67799;SHT30;54596;43.216;27.904;2023-12-07T12:00:56;7.05;91.17
67799;SHT30;54596;43.216;27.904;2023-12-07T12:03:23;7.00;91.28
67799;SHT30;54596;43.216;27.904;2023-12-07T12:05:48;6.97;91.40
67799;SHT30;54596;43.216;27.904;2023-12-07T12:08:16;6.89;91.52
67799;SHT30;54596;43.216;27.904;2023-12-07T12:10:42;6.86;91.60
67799;SHT30;54596;43.216;27.904;2023-12-07T12:13:08;6.85;91.41
67799;SHT30;54596;43.216;27.904;2023-12-07T12:15:34;6.85;91.45
67799;SHT30;54596;43.216;27.904;2023-12-07T12:18:00;6.85;91.56
67799;SHT30;54596;43.216;27.904;2023-12-07T12:20:26;6.81;91.48
67799;SHT30;54596;43.216;27.904;2023-12-07T12:22:52;6.79;91.39
67799;SHT30;54596;43.216;27.904;2023-12-07T12:25:28;6.79;91.24
67799;SHT30;54596;43.216;27.904;2023-12-07T12:27:57;6.82;91.36
67799;SHT30;54596;43.216;27.904;2023-12-07T12:30:24;6.85;91.34
67799;SHT30;54596;43.216;27.904;2023-12-07T12:32:50;6.78;91.16
67799;SHT30;54596;43.216;27.904;2023-12-07T12:35:17;6.74;91.40
67799;SHT30;54596;43.216;27.904;2023-12-07T12:37:44;6.72;91.36
67799;SHT30;54596;43.216;27.904;2023-12-07T12:40:14;6.74;91.71
67799;SHT30;54596;43.216;27.904;2023-12-07T12:42:48;6.78;91.76
67799;SHT30;54596;43.216;27.904;2023-12-07T12:45:16;6.84;91.67
67799;SHT30;54596;43.216;27.904;2023-12-07T12:47:42;6.84;91.19
67799;SHT30;54596;43.216;27.904;2023-12-07T12:50:12;6.85;91.31
67799;SHT30;54596;43.216;27.904;2023-12-07T12:52:41;6.85;90.70
67799;SHT30;54596;43.216;27.904;2023-12-07T12:55:08;6.81;91.02
67799;SHT30;54596;43.216;27.904;2023-12-07T12:57:35;6.84;91.07
67799;SHT30;54596;43.216;27.904;2023-12-07T13:00:02;6.84;90.74
67799;SHT30;54596;43.216;27.904;2023-12-07T13:02:28;6.85;90.65
67799;SHT30;54596;43.216;27.904;2023-12-07T13:04:54;6.84;90.55
67799;SHT30;54596;43.216;27.904;2023-12-07T13:07:21;6.84;90.65
67799;SHT30;54596;43.216;27.904;2023-12-07T13:09:47;6.84;90.33
67799;SHT30;54596;43.216;27.904;2023-12-07T13:12:12;6.71;89.39
67799;SHT30;54596;43.216;27.904;2023-12-07T13:14:39;6.67;89.99
67799;SHT30;54596;43.216;27.904;2023-12-07T13:17:05;6.65;89.83
67799;SHT30;54596;43.216;27.904;2023-12-07T13:19:33;6.65;89.78
67799;SHT30;54596;43.216;27.904;2023-12-07T13:22:02;6.63;89.46
67799;SHT30;54596;43.216;27.904;2023-12-07T13:24:28;6.63;89.58
67799;SHT30;54596;43.216;27.904;2023-12-07T13:26:54;6.55;89.29
67799;SHT30;54596;43.216;27.904;2023-12-07T13:29:22;6.52;89.31
67799;SHT30;54596;43.216;27.904;2023-12-07T13:31:48;6.48;88.91
67799;SHT30;54596;43.216;27.904;2023-12-07T13:34:15;6.57;90.27
67799;SHT30;54596;43.216;27.904;2023-12-07T13:36:40;6.57;89.72
67799;SHT30;54596;43.216;27.904;2023-12-07T13:39:06;6.57;88.74
67799;SHT30;54596;43.216;27.904;2023-12-07T13:41:35;6.50;88.47
67799;SHT30;54596;43.216;27.904;2023-12-07T13:44:01;6.37;88.07
67799;SHT30;54596;43.216;27.904;2023-12-07T13:46:30;6.29;88.34
67799;SHT30;54596;43.216;27.904;2023-12-07T13:48:57;6.30;88.87
67799;SHT30;54596;43.216;27.904;2023-12-07T13:51:22;6.32;89.05
67799;SHT30;54596;43.216;27.904;2023-12-07T13:53:48;6.23;88.42
67799;SHT30;54596;43.216;27.904;2023-12-07T13:56:14;6.13;88.31
67799;SHT30;54596;43.216;27.904;2023-12-07T13:58:40;6.05;88.38
67799;SHT30;54596;43.216;27.904;2023-12-07T14:01:06;5.98;88.52
67799;SHT30;54596;43.216;27.904;2023-12-07T14:03:32;5.89;88.67
67799;SHT30;54596;43.216;27.904;2023-12-07T14:05:58;5.89;89.13
67799;SHT30;54596;43.216;27.904;2023-12-07T14:08:23;5.87;89.45
67799;SHT30;54596;43.216;27.904;2023-12-07T14:10:51;5.81;89.77
67799;SHT30;54596;43.216;27.904;2023-12-07T14:13:16;5.77;89.95
67799;SHT30;54596;43.216;27.904;2023-12-07T14:15:43;5.63;89.63
67799;SHT30;54596;43.216;27.904;2023-12-07T14:18:09;5.63;88.80
67799;SHT30;54596;43.216;27.904;2023-12-07T14:20:34;5.64;89.32
67799;SHT30;54596;43.216;27.904;2023-12-07T14:23:01;5.64;89.13
67799;SHT30;54596;43.216;27.904;2023-12-07T14:25:30;5.67;88.89
67799;SHT30;54596;43.216;27.904;2023-12-07T14:27:55;5.65;88.38
67799;SHT30;54596;43.216;27.904;2023-12-07T14:30:21;5.63;88.27
67799;SHT30;54596;43.216;27.904;2023-12-07T14:33:06;5.60;88.15
67799;SHT30;54596;43.216;27.904;2023-12-07T14:35:32;5.55;88.13
67799;SHT30;54596;43.216;27.904;2023-12-07T14:37:58;5.53;88.00
67799;SHT30;54596;43.216;27.904;2023-12-07T14:40:23;5.57;88.34
67799;SHT30;54596;43.216;27.904;2023-12-07T14:42:51;5.61;88.57
67799;SHT30;54596;43.216;27.904;2023-12-07T14:45:16;5.63;88.40
67799;SHT30;54596;43.216;27.904;2023-12-07T14:47:45;5.64;88.37
67799;SHT30;54596;43.216;27.904;2023-12-07T14:50:11;5.60;88.17
67799;SHT30;54596;43.216;27.904;2023-12-07T14:52:37;5.58;88.10
67799;SHT30;54596;43.216;27.904;2023-12-07T14:55:03;5.58;88.19
67799;SHT30;54596;43.216;27.904;2023-12-07T14:57:29;5.58;88.08
67799;SHT30;54596;43.216;27.904;2023-12-07T14:59:54;5.53;88.24
67799;SHT30;54596;43.216;27.904;2023-12-07T15:02:24;5.54;88.40
67799;SHT30;54596;43.216;27.904;2023-12-07T15:04:50;5.53;88.79
67799;SHT30;54596;43.216;27.904;2023-12-07T15:07:16;5.51;89.00
67799;SHT30;54596;43.216;27.904;2023-12-07T15:09:44;5.54;89.13
67799;SHT30;54596;43.216;27.904;2023-12-07T15:12:15;5.48;89.10
67799;SHT30;54596;43.216;27.904;2023-12-07T15:14:42;5.42;89.63
67799;SHT30;54596;43.216;27.904;2023-12-07T15:17:09;5.33;89.92
67799;SHT30;54596;43.216;27.904;2023-12-07T15:19:37;5.30;89.93
67799;SHT30;54596;43.216;27.904;2023-12-07T15:22:03;5.26;90.16
67799;SHT30;54596;43.216;27.904;2023-12-07T15:24:29;5.25;90.19
67799;SHT30;54596;43.216;27.904;2023-12-07T15:26:55;5.19;90.14
67799;SHT30;54596;43.216;27.904;2023-12-07T15:29:21;5.16;89.88
67799;SHT30;54596;43.216;27.904;2023-12-07T15:31:46;5.09;90.09
67799;SHT30;54596;43.216;27.904;2023-12-07T15:34:12;5.07;90.02